Latest Weather Observations for Eucla

IDW60801

Issued at 9:35 pm WST Monday 1 September 2014 (issued every 30 minutes, with the page automatically refreshed every 10 minutes)

About weather observations | Map of weather stations | Latest weather observations for WA | Other Formats
Station Details ID: 011003 Name: EUCLA Lat: -31.68 Lon: 128.90 Height: 93.1 m
Data from the previous 72 hours. | See also: Recent months at Eucla
Date/Time
WST
Temp
°C
App
Temp
°C
Dew
Point
Rel
Hum
%
Delta-T
°C
Wind Press
QNH
hPa
Press
MSL
hPa
Rain
since 9 am
mm
Dir
 
Spd
km/h
Gust
km/h
Spd
kts
Gust
kts
01/09:30pm 11.0 8.4 3.1 58 3.4 SE 6 13 3 7 1027.9 1027.9 0.2
01/09:00pm 11.0 7.7 2.3 55 3.7 SSE 9 13 5 7 1028.2 1028.2 0.2
01/08:30pm 11.2 7.5 2.5 55 3.8 SSE 11 17 6 9 1027.9 1027.9 0.2
01/08:00pm 12.0 7.6 2.7 53 4.0 SSE 15 22 8 12 1027.7 1027.7 0.2
01/07:30pm 11.7 8.1 3.2 56 3.8 S 11 17 6 9 1027.5 1027.5 0.2
01/07:00pm 11.5 8.7 5.2 65 2.9 SSE 9 11 5 6 1027.1 1027.1 0.2
01/06:30pm 11.8 8.9 4.8 62 3.2 S 9 13 5 7 1027.1 1027.1 0.2
01/06:00pm 11.6 8.7 4.6 62 3.2 S 9 17 5 9 1026.5 1026.5 0.2
01/05:30pm 12.2 9.1 5.4 63 3.2 S 11 20 6 11 1026.0 1025.9 0.2
01/05:00pm 12.1 8.4 4.6 60 3.4 S 13 19 7 10 1026.0 1025.9 0.2
01/04:30pm 12.9 8.2 3.0 51 4.4 S 17 24 9 13 1025.5 1025.4 0.2
01/04:00pm 13.4 9.0 4.6 55 4.0 S 17 28 9 15 1025.2 1025.1 0.2
01/03:30pm 13.5 8.7 4.4 54 4.2 S 19 28 10 15 1025.1 1025.0 0.2
01/03:00pm 14.3 9.1 5.7 56 4.1 S 22 32 12 17 1024.7 1024.6 0.2
01/02:30pm 14.6 9.8 5.4 54 4.4 S 20 32 11 17 1024.5 1024.4 0.2
01/02:00pm 15.2 10.4 5.7 53 4.5 SSW 20 33 11 18 1024.1 1024.0 0.2
01/01:30pm 16.1 11.4 6.0 51 4.9 S 20 32 11 17 1023.7 1023.6 0.2
01/01:00pm 14.7 9.9 5.8 55 4.2 S 20 30 11 16 1023.7 1023.6 0.2
01/12:30pm 15.7 10.4 6.7 55 4.4 S 24 35 13 19 1024.0 1023.9 0.2
01/12:00pm 15.9 10.8 6.1 52 4.7 SSW 22 33 12 18 1024.0 1023.9 0.2
01/11:30am 16.4 11.0 6.5 52 4.9 S 24 33 13 18 1024.1 1024.0 0.2
01/11:00am 16.4 11.2 7.3 55 4.5 S 24 35 13 19 1024.0 1023.9 0.2
01/10:30am 15.2 9.9 7.0 58 4.0 SSW 24 35 13 19 1024.0 1023.9 0.2
01/10:00am 16.2 11.0 7.4 56 4.4 S 24 39 13 21 1023.7 1023.6 0.0
01/09:30am 15.9 10.8 7.7 58 4.1 SSW 24 35 13 19 1023.2 1023.1 0.0
01/09:00am 15.2 11.1 7.7 61 3.7 SSW 19 33 10 18 1022.8 1022.7 2.6
01/08:30am 14.5 10.6 8.5 67 3.0 SSW 19 32 10 17 1022.7 1022.6 2.6
01/08:00am 14.8 10.8 9.0 68 3.0 SSW 20 32 11 17 1022.4 1022.3 2.6
01/07:30am 14.3 10.2 8.0 66 3.2 SSW 19 30 10 16 1022.0 1022.0 2.6
01/07:00am 13.0 10.6 8.5 74 2.2 SW 11 17 6 9 1021.3 1021.3 2.6
01/06:30am 12.2 9.8 8.7 79 1.8 SW 11 15 6 8 1021.0 1021.0 2.6
01/06:00am 12.1 9.7 8.6 79 1.7 WSW 11 17 6 9 1020.6 1020.6 2.6
01/05:30am 12.1 9.8 8.9 81 1.6 WSW 11 15 6 8 1020.3 1020.3 2.6
01/05:00am 12.1 10.2 8.9 81 1.6 WSW 9 13 5 7 1019.7 1019.7 2.6
01/04:30am 12.5 10.2 9.0 79 1.8 WSW 11 17 6 9 1019.5 1019.5 2.6
01/04:00am 12.7 10.8 9.0 78 1.9 WSW 9 15 5 8 1018.9 1018.9 2.6
01/03:30am 12.8 10.5 9.1 78 1.9 WSW 11 15 6 8 1018.8 1018.8 2.6
01/03:00am 13.0 10.3 9.1 77 2.0 SW 13 19 7 10 1018.5 1018.5 2.6
01/02:30am 13.1 10.0 8.8 75 2.2 SSW 15 26 8 14 1018.2 1018.2 2.6
01/02:00am 13.2 10.1 8.7 74 2.3 SSW 15 28 8 15 1018.1 1018.1 2.6
01/01:30am 12.9 9.8 9.0 77 2.0 SSW 15 24 8 13 1018.0 1018.0 2.6
01/01:00am 13.0 10.0 9.4 79 1.8 SW 15 26 8 14 1017.8 1017.8 2.6
01/12:30am 13.2 10.6 10.6 84 1.4 SW 15 22 8 12 1017.6 1017.6 2.6
01/12:00am 13.1 10.0 10.3 83 1.5 SSW 17 32 9 17 1017.4 1017.4 2.6
 
Date/Time
WST
Temp
°C
App
Temp
°C
Dew
Point
Rel
Hum
%
Delta-T
°C
Wind Press
QNH
hPa
Press
MSL
hPa
Rain
since 9 am
mm
Dir
 
Spd
km/h
Gust
km/h
Spd
kts
Gust
kts
31/11:30pm 13.1 10.6 11.2 88 1.0 SSW 15 20 8 11 1017.2 1017.2 2.6
31/11:00pm 13.2 11.3 11.8 91 0.7 SSW 13 22 7 12 1017.3 1017.3 2.6
31/10:30pm 13.2 10.9 11.8 91 0.8 SSW 15 22 8 12 1017.1 1017.1 2.6
31/10:00pm 13.7 11.3 12.6 93 0.6 SSW 17 24 9 13 1017.0 1017.0 2.4
31/09:30pm 13.8 11.0 12.5 92 0.7 SSW 19 28 10 15 1017.1 1017.1 2.4
31/09:00pm 14.0 11.6 12.7 92 0.7 SW 17 26 9 14 1017.1 1017.1 2.4
31/08:30pm 13.8 11.3 12.4 91 0.8 SW 17 32 9 17 1017.0 1017.0 2.4
31/08:00pm 14.3 12.9 13.5 95 0.4 WSW 13 19 7 10 1016.5 1016.5 2.4
31/07:30pm 14.6 13.4 14.0 96 0.3 SW 13 22 7 12 1016.2 1016.2 2.2
31/07:00pm 14.8 13.7 14.3 97 0.3 SW 13 17 7 9 1015.9 1015.9 2.2
31/06:30pm 14.9 14.2 14.4 97 0.3 SW 11 15 6 8 1015.5 1015.5 2.2
31/06:00pm 14.9 13.8 14.3 96 0.3 SW 13 17 7 9 1015.1 1015.1 2.2
31/05:30pm 14.8 13.7 14.2 96 0.3 SSW 13 19 7 10 1014.6 1014.6 2.2
31/05:00pm 14.8 14.0 14.0 95 0.5 SSW 11 15 6 8 1014.3 1014.3 2.2
31/04:30pm 14.9 14.5 14.1 95 0.5 SSW 9 15 5 8 1014.0 1014.0 2.2
31/04:00pm 15.2 14.5 14.2 94 0.6 S 11 19 6 10 1013.7 1013.7 2.0
31/03:30pm 15.4 14.4 14.6 95 0.5 S 13 19 7 10 1013.6 1013.6 2.0
31/03:00pm 15.3 13.4 14.3 94 0.6 S 17 26 9 14 1013.1 1013.1 2.0
31/02:30pm 15.6 13.8 14.5 93 0.6 S 17 24 9 13 1013.4 1013.4 2.0
31/02:00pm 15.9 14.0 14.3 90 0.9 SW 17 30 9 16 1014.0 1014.0 1.6
31/01:30pm 16.3 15.0 13.8 85 1.4 SSE 13 20 7 11 1012.2 1012.2 0.2
31/01:00pm 17.7 15.7 12.8 73 2.7 SSE 15 19 8 10 1012.3 1012.3 0.0
31/12:30pm 20.2 17.7 11.1 56 5.0 SSE 15 24 8 13 1012.1 1012.1 0.0
31/12:00pm 19.8 17.8 11.6 59 4.5 SSE 13 19 7 10 1012.3 1012.3 0.0
31/11:30am 21.4 18.8 12.0 55 5.3 SSE 17 24 9 13 1012.9 1012.9 0.0
31/11:00am 23.9 20.7 11.2 44 7.1 W 19 28 10 15 1013.6 1013.6 0.0
31/10:30am 24.2 21.8 10.1 41 7.8 NW 13 19 7 10 1013.9 1013.9 0.0
31/10:00am 23.1 20.8 10.5 45 7.0 NW 13 19 7 10 1014.0 1014.0 0.0
31/09:30am 22.1 20.6 10.6 48 6.3 NW 9 19 5 10 1014.1 1014.1 0.0
31/09:00am 22.1 20.4 11.2 50 6.1 N 11 17 6 9 1014.3 1014.3 0.0
31/08:30am 20.0 18.5 12.0 60 4.5 N 11 15 6 8 1014.5 1014.5 0.0
31/08:00am 18.5 16.3 12.0 66 3.6 N 15 17 8 9 1014.6 1014.6 0.0
31/07:30am 16.2 14.6 11.6 74 2.5 N 11 15 6 8 1014.4 1014.4 0.0
31/07:00am 15.2 13.7 11.8 80 1.8 N 11 15 6 8 1014.5 1014.5 0.0
31/06:30am 14.1 12.6 11.8 86 1.2 N 11 13 6 7 1014.6 1014.6 0.0
31/06:00am 13.7 12.5 11.7 88 1.1 N 9 11 5 6 1014.8 1014.8 0.0
31/05:30am 13.3 12.0 11.4 88 1.0 N 9 11 5 6 1014.5 1014.5 0.0
31/05:00am 13.7 12.5 11.6 87 1.1 NNE 9 13 5 7 1013.8 1013.8 0.0
31/04:30am 13.8 12.6 11.7 87 1.1 N 9 11 5 6 1014.6 1014.6 0.0
31/04:00am 13.9 13.3 11.6 86 1.2 N 6 9 3 5 1014.1 1014.1 0.0
31/03:30am 14.5 13.0 11.8 84 1.5 NNW 11 15 6 8 1014.2 1014.2 0.0
31/03:00am 13.8 12.4 12.2 90 0.9 NE 11 17 6 9 1013.1 1013.1 0.0
31/02:30am 13.9 12.9 12.3 90 0.9 N 9 11 5 6 1014.3 1014.3 0.0
31/02:00am 13.9 13.3 12.3 90 0.9 NNE 7 11 4 6 1014.8 1014.8 0.0
31/01:30am 14.0 13.5 12.6 91 0.8 E 7 11 4 6 1014.7 1014.7 0.0
31/01:00am 13.5 12.4 12.1 91 0.8 E 9 11 5 6 1014.7 1014.7 0.0
31/12:30am 13.7 13.2 12.1 90 0.9 ESE 6 9 3 5 1015.2 1015.2 0.0
31/12:00am 14.2 13.2 12.4 89 1.0 ESE 9 11 5 6 1015.1 1015.1 0.0
 
Date/Time
WST
Temp
°C
App
Temp
°C
Dew
Point
Rel
Hum
%
Delta-T
°C
Wind Press
QNH
hPa
Press
MSL
hPa
Rain
since 9 am
mm
Dir
 
Spd
km/h
Gust
km/h
Spd
kts
Gust
kts
30/11:30pm 14.5 13.6 12.5 88 1.1 SE 9 15 5 8 1015.2 1015.2 0.0
30/11:00pm 14.7 13.8 12.6 87 1.2 ESE 9 15 5 8 1015.3 1015.3 0.0
30/10:30pm 14.7 13.2 13.1 90 0.9 ESE 13 17 7 9 1015.2 1015.2 0.0
30/10:00pm 14.3 13.0 12.5 89 1.0 SE 11 15 6 8 1015.5 1015.5 0.0
30/09:30pm 14.2 12.4 12.1 87 1.1 S 13 17 7 9 1015.6 1015.6 0.0
30/09:00pm 14.5 12.6 11.8 84 1.5 S 13 17 7 9 1015.8 1015.8 0.0
30/08:30pm 14.8 12.8 11.6 81 1.7 S 13 17 7 9 1016.1 1016.1 0.0
30/08:00pm 14.8 12.3 11.2 79 1.9 S 15 19 8 10 1016.0 1016.0 0.0
30/07:30pm 15.5 13.6 11.7 78 2.1 S 13 17 7 9 1015.8 1015.8 0.0
30/07:00pm 15.6 13.8 12.2 80 1.9 S 13 15 7 8 1015.3 1015.3 0.0
30/06:30pm 15.9 14.2 12.5 80 1.9 S 13 19 7 10 1015.1 1015.1 0.0
30/06:00pm 16.1 14.1 12.7 80 1.9 SSW 15 20 8 11 1014.6 1014.6 0.0
30/05:30pm 16.7 14.6 12.5 76 2.3 SSW 15 20 8 11 1014.0 1014.0 0.0
30/05:00pm 17.4 15.5 11.9 70 3.0 S 13 17 7 9 1013.4 1013.4 0.0
30/04:30pm 18.2 15.2 10.8 62 4.0 S 17 22 9 12 1013.1 1013.1 0.0
30/04:00pm 22.6 17.6 1.6 25 9.8 SSW 17 26 9 14 1013.1 1013.1 0.0
30/03:30pm 24.4 20.8 0.7 21 11.0 SSE 9 13 5 7 1012.2 1012.2 0.0
30/03:00pm 25.1 21.4 2.5 23 10.9 S 11 15 6 8 1012.3 1012.3 0.0
30/02:30pm 26.9 22.5 0.6 18 12.5 SSE 13 17 7 9 1012.1 1012.1 0.0
30/02:17pm 26.6 21.8 0.4 18 12.3 SSE 15 22 8 12 1012.2 1012.2 0.0
30/02:00pm 31.8 25.4 -4.9 9 16.4 W 20 28 11 15 1012.2 1012.2 0.0
30/01:30pm 31.4 25.2 -5.2 9 16.2 WNW 19 33 10 18 1012.3 1012.3 0.0
30/01:00pm 31.3 25.1 -5.3 9 16.2 WNW 19 32 10 17 1012.5 1012.5 0.0
30/12:30pm 29.6 23.2 -6.6 9 15.4 WNW 19 35 10 19 1012.9 1012.9 0.0
30/12:00pm 30.7 24.4 -5.8 9 15.9 WNW 19 32 10 17 1013.1 1013.1 0.0
30/11:30am 30.4 23.7 -7.5 8 16.0 NW 20 33 11 18 1013.5 1013.5 0.0
30/11:00am 29.4 21.2 -8.2 8 15.5 NW 28 41 15 22 1014.0 1014.0 0.0
30/10:30am 29.5 21.3 -8.2 8 15.6 NW 28 41 15 22 1014.4 1014.4 0.0
30/10:00am 29.0 20.5 -7.0 9 15.1 NNW 30 43 16 23 1014.6 1014.6 0.0
30/09:30am 27.5 19.4 -6.8 10 14.3 NNW 28 39 15 21 1014.8 1014.8 0.0
30/09:00am 25.9 17.4 -6.8 11 13.4 NNW 30 39 16 21 1015.0 1015.0 0.0
30/08:30am 23.9 16.7 -5.2 14 12.1 N 24 35 13 19 1015.1 1015.1 0.0
30/08:00am 22.2 14.8 -4.0 17 10.9 N 26 35 14 19 1015.2 1015.2 0.0
30/07:30am 20.5 12.6 -4.6 18 10.2 N 28 39 15 21 1015.4 1015.4 0.0
30/07:00am 17.9 11.2 -4.1 22 8.8 N 22 33 12 18 1015.4 1015.4 0.0
30/06:30am 16.2 9.0 -4.9 23 8.2 N 24 33 13 18 1015.3 1015.3 0.0
30/06:00am 15.5 8.3 -5.5 23 7.9 N 24 30 13 16 1015.2 1015.2 0.0
30/05:30am 16.2 9.0 -5.5 22 8.3 N 24 32 13 17 1014.9 1014.9 0.0
30/05:00am 17.0 9.3 -6.1 20 8.8 N 26 35 14 19 1014.7 1014.7 0.0
30/04:30am 17.8 10.1 -6.1 19 9.2 N 26 39 14 21 1014.5 1014.5 0.0
30/04:00am 18.1 10.1 -5.9 19 9.3 N 28 37 15 20 1014.3 1014.3 0.0
30/03:30am 18.5 10.9 -5.5 19 9.4 N 26 35 14 19 1014.3 1014.3 0.0
30/03:00am 18.3 11.1 -5.7 19 9.3 N 24 35 13 19 1014.4 1014.4 0.0
30/02:30am 18.2 11.0 -5.1 20 9.2 N 24 35 13 19 1014.6 1014.6 0.0
30/02:00am 18.4 10.9 -4.9 20 9.2 N 26 37 14 20 1014.8 1014.8 0.0
30/01:30am 18.9 11.3 -5.2 19 9.5 N 26 35 14 19 1014.9 1014.9 0.0
30/01:00am 19.0 11.1 -4.4 20 9.4 N 28 39 15 21 1015.1 1015.1 0.0
30/12:30am 19.0 11.5 -4.4 20 9.4 N 26 35 14 19 1015.3 1015.3 0.0
30/12:00am 19.3 11.5 -4.2 20 9.5 N 28 37 15 20 1015.6 1015.6 0.0
 
Date/Time
WST
Temp
°C
App
Temp
°C
Dew
Point
Rel
Hum
%
Delta-T
°C
Wind Press
QNH
hPa
Press
MSL
hPa
Rain
since 9 am
mm
Dir
 
Spd
km/h
Gust
km/h
Spd
kts
Gust
kts
29/11:30pm 19.7 11.9 -3.9 20 9.7 N 28 37 15 20 1015.7 1015.7 0.0
29/11:00pm 20.2 12.4 -4.1 19 9.9 N 28 41 15 22 1015.9 1015.9 0.0
29/10:30pm 20.2 12.4 -4.1 19 9.9 N 28 39 15 21 1016.1 1016.1 0.0
29/10:00pm 20.5 13.4 -4.6 18 10.2 N 24 37 13 20 1016.3 1016.3 0.0

Other Formats:

Comma delimited format used in spreadsheet applications
http://www.bom.gov.au/fwo/IDW60801/IDW60801.94647.axf

JavaScript Object Notation format (JSON) in row-major order
http://www.bom.gov.au/fwo/IDW60801/IDW60801.94647.json